< < Back
Terminal Aerodrome Forecast


Current Version              Previous Versions:   1  2  3  4  5  6  7  8  9  

Terminal Aerodrome Forecast

052
FTUS42 KGSP 261120
TAFAVL
TAF
KAVL 261120Z 2612/2712 18003KT P6SM SCT050 BKN120
     FM261600 18006KT P6SM VCTS BKN050CB
     FM262100 18004KT P6SM BKN050 PROB30 2621/2702 4SM -TSRA
      OVC025CB
     FM270200 00000KT P6SM BKN070
     FM270900 00000KT 5SM BR BKN070=

Latest METAR

507
SAUS70 KWBC 270600 RRB
MTRAVL
METAR KAVL 270554Z AUTO 00000KT 8SM CLR 17/15 A3018 RMK AO2 SLP195 60000
T01670150 10228 20167 50001


USA.gov is the U.S. government's official web portal to all federal, state and local government web resources and services.